createdAt,value
2017-04-28T00:01:57.395Z,95.40
2017-04-28T00:04:27.025Z,95.30
2017-04-28T00:06:56.516Z,95.40
2017-04-28T00:09:26.190Z,95.50
2017-04-28T00:11:56.397Z,95.50
2017-04-28T00:14:26.225Z,95.50
2017-04-28T00:16:56.436Z,95.50
2017-04-28T00:19:26.707Z,95.60
2017-04-28T00:21:56.197Z,95.60
2017-04-28T00:24:27.101Z,95.30
2017-04-28T00:26:57.326Z,95.00
2017-04-28T00:29:27.543Z,95.10
2017-04-28T00:31:57.779Z,95.00
2017-04-28T00:34:28.001Z,95.00
2017-04-28T00:36:58.234Z,95.50
2017-04-28T00:39:28.444Z,95.40
2017-04-28T00:41:58.671Z,95.40
2017-04-28T00:44:28.887Z,95.20
2017-04-28T00:46:59.119Z,95.20
2017-04-28T00:49:29.408Z,95.30
2017-04-28T00:51:59.576Z,95.30
2017-04-28T00:54:29.507Z,95.40
2017-04-28T00:56:59.076Z,95.50
2017-04-28T00:59:28.552Z,95.60
2017-04-28T01:01:58.027Z,95.60
2017-04-28T01:04:27.528Z,95.60
2017-04-28T01:06:56.659Z,95.60
2017-04-28T01:09:26.148Z,95.60
2017-04-28T01:11:55.608Z,95.50
2017-04-28T01:14:25.836Z,95.50
2017-04-28T01:16:56.300Z,95.60
2017-04-28T01:19:25.797Z,95.60
2017-04-28T01:21:55.339Z,95.70
2017-04-28T01:24:24.825Z,95.70
2017-04-28T01:26:54.320Z,95.50
2017-04-28T01:29:23.788Z,95.20
2017-04-28T01:31:53.954Z,95.30
2017-04-28T01:34:23.427Z,95.40
2017-04-28T01:36:53.602Z,95.50
2017-04-28T01:39:23.093Z,95.00
2017-04-28T01:41:52.597Z,94.90
2017-04-28T01:44:22.059Z,95.20
2017-04-28T01:46:51.519Z,95.30
2017-04-28T01:49:21.691Z,95.20
2017-04-28T01:51:51.934Z,94.80
2017-04-28T01:54:21.411Z,95.00
2017-04-28T01:56:51.578Z,95.20
2017-04-28T01:59:21.078Z,95.40
2017-04-28T02:01:50.220Z,95.60
2017-04-28T02:04:19.389Z,95.60
2017-04-28T02:06:48.573Z,94.70
2017-04-28T02:09:18.046Z,94.20
2017-04-28T02:11:48.251Z,94.40
2017-04-28T02:14:17.844Z,94.40
2017-04-28T02:16:47.312Z,94.80
2017-04-28T02:19:16.440Z,95.00
2017-04-28T02:21:45.955Z,95.00
2017-04-28T02:24:15.420Z,95.10
2017-04-28T02:26:44.994Z,95.10
2017-04-28T02:29:14.467Z,94.40
2017-04-28T02:31:43.943Z,93.80
2017-04-28T02:34:13.415Z,93.80
2017-04-28T02:36:43.626Z,94.20
2017-04-28T02:39:13.108Z,94.40
2017-04-28T02:41:42.577Z,94.30
2017-04-28T02:44:12.044Z,94.00
2017-04-28T02:46:41.636Z,93.70
2017-04-28T02:49:11.796Z,93.80
2017-04-28T02:51:42.023Z,94.10
2017-04-28T02:54:11.521Z,93.90
2017-04-28T02:56:41.755Z,94.00
2017-04-28T02:59:11.240Z,94.60
2017-04-28T03:01:40.735Z,93.80
2017-04-28T03:04:10.344Z,93.90
2017-04-28T03:06:39.811Z,93.70
2017-04-28T03:09:09.294Z,93.90
2017-04-28T03:11:38.756Z,93.80
2017-04-28T03:14:08.239Z,93.90
2017-04-28T03:16:37.373Z,93.50
2017-04-28T03:19:06.904Z,93.80
2017-04-28T03:21:36.051Z,93.70
2017-04-28T03:24:05.900Z,93.70
2017-04-28T03:26:36.127Z,93.20
2017-04-28T03:29:06.351Z,93.00
2017-04-28T03:31:36.560Z,93.10
2017-04-28T03:34:06.797Z,93.30
2017-04-28T03:36:37.015Z,93.60
2017-04-28T03:39:07.191Z,94.00
2017-04-28T03:41:36.665Z,93.90
2017-04-28T03:44:06.155Z,94.20
2017-04-28T03:46:36.372Z,93.90
2017-04-28T03:49:06.590Z,94.40
2017-04-28T03:51:36.811Z,94.90
2017-04-28T03:54:07.041Z,94.40
2017-04-28T03:56:37.243Z,94.40
2017-04-28T03:59:06.735Z,94.50
2017-04-28T04:01:36.347Z,94.70
2017-04-28T04:04:05.844Z,94.80
2017-04-28T04:06:35.324Z,94.80
2017-04-28T04:09:03.932Z,94.80
2017-04-28T04:11:33.416Z,94.90
2017-04-28T04:14:02.912Z,94.80
2017-04-28T04:16:32.390Z,95.00
2017-04-28T04:19:02.619Z,94.80
2017-04-28T04:21:32.860Z,94.90
2017-04-28T04:24:02.376Z,94.90
2017-04-28T04:26:31.831Z,95.40
2017-04-28T04:29:01.321Z,95.30
2017-04-28T04:31:30.845Z,95.40
2017-04-28T04:33:59.993Z,95.00
2017-04-28T04:36:29.115Z,95.30
2017-04-28T04:38:58.663Z,95.00
2017-04-28T04:41:29.783Z,95.00
2017-04-28T04:43:59.252Z,94.50
2017-04-28T04:46:28.380Z,94.40
2017-04-28T04:48:57.855Z,94.80
2017-04-28T04:51:27.333Z,94.80
2017-04-28T04:53:57.687Z,94.30
2017-04-28T04:56:27.150Z,94.40
2017-04-28T04:58:57.388Z,94.50
2017-04-28T05:01:27.608Z,94.70
2017-04-28T05:03:57.872Z,94.70
2017-04-28T05:06:27.336Z,94.60
2017-04-28T05:08:56.807Z,94.90
2017-04-28T05:11:26.173Z,95.10
2017-04-28T05:13:55.628Z,95.00
2017-04-28T05:16:25.123Z,94.90
2017-04-28T05:18:55.263Z,95.00
2017-04-28T05:21:24.752Z,95.10
2017-04-28T05:23:54.325Z,94.80
2017-04-28T05:26:23.868Z,94.40
2017-04-28T05:28:53.336Z,94.60
2017-04-28T05:31:22.839Z,94.70
2017-04-28T05:33:52.311Z,94.50
2017-04-28T05:36:22.526Z,94.80
2017-04-28T05:38:52.024Z,93.90
2017-04-28T05:41:21.165Z,93.50
2017-04-28T05:43:50.622Z,94.00
2017-04-28T05:46:20.129Z,94.30
2017-04-28T05:48:49.604Z,94.80
2017-04-28T05:51:19.084Z,94.30
2017-04-28T05:53:49.307Z,94.10
2017-04-28T05:56:19.528Z,93.80
2017-04-28T05:58:49.008Z,93.90
2017-04-28T06:01:18.840Z,93.30
2017-04-28T06:03:49.051Z,94.10
2017-04-28T06:06:18.515Z,93.70
2017-04-28T06:08:48.026Z,93.70
2017-04-28T06:11:17.501Z,93.00
2017-04-28T06:13:46.983Z,93.30
2017-04-28T06:16:17.266Z,93.20
2017-04-28T06:18:46.753Z,93.20
2017-04-28T06:21:16.237Z,93.00
2017-04-28T06:23:45.792Z,92.20
2017-04-28T06:26:15.272Z,92.40
2017-04-28T06:28:44.388Z,92.40
2017-04-28T06:31:13.893Z,92.60
2017-04-28T06:33:43.379Z,91.50
2017-04-28T06:36:12.855Z,91.20
2017-04-28T06:38:43.087Z,92.10
2017-04-28T06:41:12.559Z,92.60
2017-04-28T06:43:41.679Z,90.80
2017-04-28T06:46:11.909Z,90.70
2017-04-28T06:48:41.400Z,91.80
2017-04-28T06:51:11.608Z,90.80
2017-04-28T06:53:40.819Z,89.10
2017-04-28T06:56:10.031Z,88.50
2017-04-28T06:58:39.255Z,89.40
2017-04-28T07:01:08.730Z,88.60
2017-04-28T07:03:38.621Z,88.40
2017-04-28T07:06:07.831Z,86.90
2017-04-28T07:08:37.344Z,87.10
2017-04-28T07:11:06.551Z,88.60
2017-04-28T07:13:35.756Z,84.80
2017-04-28T07:16:05.991Z,86.80
2017-04-28T07:18:35.480Z,90.00
2017-04-28T07:21:05.700Z,84.90
2017-04-28T07:23:35.995Z,86.50
2017-04-28T07:26:05.500Z,86.00
2017-04-28T07:28:34.623Z,85.30
2017-04-28T07:31:03.903Z,83.60
2017-04-28T07:33:33.400Z,84.30
2017-04-28T07:36:03.352Z,82.60
2017-04-28T07:38:32.608Z,85.60
2017-04-28T07:41:01.808Z,84.70
2017-04-28T07:43:31.009Z,82.70
2017-04-28T07:46:00.299Z,81.90
2017-04-28T07:48:29.499Z,82.00
2017-04-28T07:50:59.135Z,81.00
2017-04-28T07:53:29.084Z,84.90
2017-04-28T07:55:59.462Z,83.70
2017-04-28T07:58:29.364Z,84.80
2017-04-28T08:00:58.556Z,83.30
2017-04-28T08:03:27.771Z,80.50
2017-04-28T08:05:56.640Z,80.20
2017-04-28T08:08:25.838Z,81.10
2017-04-28T08:10:55.029Z,78.60
2017-04-28T08:13:24.390Z,80.70
2017-04-28T08:15:54.324Z,80.10
2017-04-28T08:18:23.541Z,79.50
2017-04-28T08:20:52.744Z,80.30
2017-04-28T08:23:21.999Z,78.90
2017-04-28T08:25:51.888Z,79.10
2017-04-28T08:28:21.107Z,77.90
2017-04-28T08:30:50.319Z,80.00
2017-04-28T08:33:20.355Z,77.60
2017-04-28T08:35:49.575Z,75.40
2017-04-28T08:38:18.441Z,76.10
2017-04-28T08:40:47.640Z,71.90
2017-04-28T08:43:17.591Z,74.10
2017-04-28T08:45:46.803Z,75.10
2017-04-28T08:48:15.651Z,74.10
2017-04-28T08:50:44.859Z,75.30
2017-04-28T08:53:15.495Z,76.60
2017-04-28T08:55:44.708Z,69.60
2017-04-28T08:58:13.932Z,70.10
2017-04-28T09:00:43.123Z,71.90
2017-04-28T09:03:12.343Z,72.20
2017-04-28T09:05:41.622Z,72.40
2017-04-28T09:08:10.812Z,68.20
2017-04-28T09:10:40.025Z,68.70
2017-04-28T09:13:09.219Z,69.50
2017-04-28T09:15:38.444Z,66.40
2017-04-28T09:18:07.650Z,66.50
2017-04-28T09:20:36.853Z,63.40
2017-04-28T09:23:06.067Z,66.40
2017-04-28T09:25:35.656Z,65.20
2017-04-28T09:28:05.564Z,62.60
2017-04-28T09:30:34.785Z,62.60
2017-04-28T09:33:04.725Z,62.50
2017-04-28T09:35:33.950Z,61.90
2017-04-28T09:38:03.185Z,62.90
2017-04-28T09:40:33.160Z,61.50
2017-04-28T09:43:02.520Z,59.20
2017-04-28T09:45:32.467Z,59.20
2017-04-28T09:48:01.679Z,60.20
2017-04-28T09:50:30.873Z,59.30
2017-04-28T09:53:00.087Z,55.30
2017-04-28T09:55:29.279Z,56.80
2017-04-28T09:57:58.474Z,55.20
2017-04-28T10:00:27.507Z,56.60
2017-04-28T10:02:56.764Z,56.40
2017-04-28T10:05:25.973Z,54.70
2017-04-28T10:07:55.192Z,54.30
2017-04-28T10:10:24.390Z,54.00
2017-04-28T10:12:53.605Z,54.60
2017-04-28T10:15:22.824Z,54.90
2017-04-28T10:17:52.789Z,54.40
2017-04-28T10:20:23.083Z,54.30
2017-04-28T10:22:52.303Z,55.40
2017-04-28T10:25:21.499Z,53.50
2017-04-28T10:27:50.707Z,54.00
2017-04-28T10:30:19.907Z,52.80
2017-04-28T10:32:49.122Z,54.00
2017-04-28T10:35:18.340Z,53.70
2017-04-28T10:37:47.723Z,52.20
2017-04-28T10:40:16.909Z,50.30
2017-04-28T10:42:46.120Z,50.90
2017-04-28T10:45:15.431Z,52.10
2017-04-28T10:47:44.615Z,50.50
2017-04-28T10:50:13.894Z,50.50
2017-04-28T10:52:43.091Z,49.60
2017-04-28T10:55:12.322Z,49.70
2017-04-28T10:57:41.536Z,49.80
2017-04-28T11:00:10.699Z,50.40
2017-04-28T11:02:39.927Z,49.80
2017-04-28T11:05:09.124Z,49.20
2017-04-28T11:07:38.331Z,49.00
2017-04-28T11:10:07.534Z,48.80
2017-04-28T11:12:36.747Z,46.70
2017-04-28T11:15:05.957Z,45.10
2017-04-28T11:17:35.156Z,43.80
2017-04-28T11:20:04.351Z,42.80
2017-04-28T11:22:33.564Z,42.00
2017-04-28T11:25:03.502Z,40.90
2017-04-28T11:27:33.515Z,42.00
2017-04-28T11:30:03.439Z,42.20
2017-04-28T11:32:32.651Z,41.80
2017-04-28T11:35:01.935Z,40.80
2017-04-28T11:37:31.139Z,41.30
2017-04-28T11:40:00.343Z,41.90
2017-04-28T11:42:29.994Z,42.40
2017-04-28T11:44:59.204Z,40.20
2017-04-28T11:47:28.419Z,38.50
2017-04-28T11:49:58.373Z,38.60
2017-04-28T11:52:27.602Z,33.90
2017-04-28T11:54:57.728Z,35.70
2017-04-28T11:57:26.936Z,34.80
2017-04-28T11:59:56.269Z,35.40
2017-04-28T12:02:25.731Z,36.60
2017-04-28T12:04:54.948Z,34.60
2017-04-28T12:07:24.179Z,33.40
2017-04-28T12:09:54.143Z,34.60
2017-04-28T12:12:23.499Z,36.40
2017-04-28T12:14:53.424Z,34.20
2017-04-28T12:17:22.628Z,33.20
2017-04-28T12:19:52.005Z,36.30
2017-04-28T12:22:21.943Z,44.00
2017-04-28T12:24:51.258Z,47.20
2017-04-28T12:27:20.483Z,48.80
2017-04-28T12:29:49.711Z,49.30
2017-04-28T12:32:19.599Z,49.00
2017-04-28T12:34:48.872Z,48.50
2017-04-28T12:37:18.072Z,50.50
2017-04-28T12:39:47.445Z,51.40
2017-04-28T12:42:17.491Z,49.60
2017-04-28T12:44:46.343Z,49.50
2017-04-28T12:47:15.537Z,47.90
2017-04-28T12:49:45.017Z,50.30
2017-04-28T12:52:14.221Z,49.00
2017-04-28T12:54:44.194Z,45.70
2017-04-28T12:57:13.419Z,45.40
2017-04-28T12:59:42.647Z,49.80
2017-04-28T13:02:11.867Z,49.20
2017-04-28T13:04:41.072Z,47.50
2017-04-28T13:07:11.020Z,43.20
2017-04-28T13:09:41.659Z,40.80
2017-04-28T13:12:10.855Z,41.90
2017-04-28T13:14:39.712Z,46.10
2017-04-28T13:17:09.676Z,39.80
2017-04-28T13:19:38.892Z,34.60
2017-04-28T13:22:08.229Z,34.10
2017-04-28T13:24:37.435Z,33.50
2017-04-28T13:27:07.387Z,35.90
2017-04-28T13:29:36.575Z,35.70
2017-04-28T13:32:06.495Z,36.90
2017-04-28T13:34:35.691Z,36.00
2017-04-28T13:37:04.995Z,36.70
2017-04-28T13:39:34.205Z,37.30
2017-04-28T13:42:03.396Z,36.90
2017-04-28T13:44:32.656Z,36.70
2017-04-28T13:47:01.859Z,37.40
2017-04-28T13:49:31.811Z,38.00
2017-04-28T13:52:01.121Z,37.50
2017-04-28T13:54:30.316Z,37.70
2017-04-28T13:56:59.516Z,39.00
2017-04-28T13:59:28.734Z,39.60
2017-04-28T14:01:57.923Z,38.60
2017-04-28T14:04:27.152Z,39.40
2017-04-28T14:06:56.348Z,39.30
2017-04-28T14:09:25.599Z,38.90
2017-04-28T14:11:55.522Z,39.70
2017-04-28T14:14:25.036Z,38.30
2017-04-28T14:16:54.546Z,36.80
2017-04-28T14:19:23.419Z,36.40
2017-04-28T14:21:52.278Z,38.60
2017-04-28T14:24:21.471Z,37.80
2017-04-28T14:26:50.684Z,34.80
2017-04-28T14:29:19.880Z,35.90
2017-04-28T14:31:49.081Z,38.20
2017-04-28T14:34:18.284Z,34.70
2017-04-28T14:36:47.551Z,34.50
2017-04-28T14:39:16.756Z,34.10
2017-04-28T14:41:45.975Z,34.80
2017-04-28T14:44:15.157Z,33.90
2017-04-28T14:46:44.365Z,33.50
2017-04-28T14:49:13.680Z,34.00
2017-04-28T14:51:42.893Z,32.90
2017-04-28T14:54:11.400Z,32.90
2017-04-28T14:56:40.612Z,34.30
2017-04-28T14:59:09.796Z,35.40
2017-04-28T15:01:39.827Z,35.00
2017-04-28T15:04:09.056Z,36.60
2017-04-28T15:06:38.277Z,31.90
2017-04-28T15:09:07.531Z,34.60
2017-04-28T15:11:36.851Z,36.60
2017-04-28T15:14:06.036Z,34.50
2017-04-28T15:16:35.231Z,36.90
2017-04-28T15:19:04.452Z,37.30
2017-04-28T15:21:33.650Z,38.00
2017-04-28T15:24:02.847Z,40.00
2017-04-28T15:26:32.160Z,38.80
2017-04-28T15:29:01.356Z,37.70
2017-04-28T15:31:30.567Z,39.60
2017-04-28T15:33:59.801Z,40.40
2017-04-28T15:36:29.736Z,40.10
2017-04-28T15:38:58.951Z,41.80
2017-04-28T15:41:28.164Z,40.40
2017-04-28T15:43:57.520Z,42.10
2017-04-28T15:46:26.751Z,44.40
2017-04-28T15:48:55.995Z,46.70
2017-04-28T15:51:24.504Z,49.10
2017-04-28T15:53:53.688Z,51.00
2017-04-28T15:56:22.882Z,51.90
2017-04-28T15:58:52.084Z,52.40
2017-04-28T16:01:21.302Z,52.20
2017-04-28T16:03:51.210Z,50.90
2017-04-28T16:06:20.407Z,52.40
2017-04-28T16:08:49.630Z,54.30
2017-04-28T16:11:18.490Z,52.40
2017-04-28T16:13:47.666Z,51.50
2017-04-28T16:16:16.899Z,52.60
2017-04-28T16:18:46.076Z,52.00
2017-04-28T16:21:15.279Z,52.00
2017-04-28T16:23:44.575Z,51.10
2017-04-28T16:26:13.781Z,50.70
2017-04-28T16:28:43.049Z,51.90
2017-04-28T16:31:12.267Z,53.30
2017-04-28T16:33:41.468Z,54.40
2017-04-28T16:36:11.380Z,54.10
2017-04-28T16:38:40.600Z,50.90
2017-04-28T16:41:09.797Z,51.70
2017-04-28T16:43:39.032Z,51.20
2017-04-28T16:46:08.235Z,51.20
2017-04-28T16:48:37.428Z,52.20
2017-04-28T16:51:06.648Z,52.60
2017-04-28T16:53:35.865Z,52.70
2017-04-28T16:56:05.076Z,51.80
2017-04-28T16:58:34.336Z,50.50
2017-04-28T17:01:03.605Z,50.40
2017-04-28T17:03:32.802Z,51.20
2017-04-28T17:06:02.022Z,50.40
2017-04-28T17:08:31.235Z,52.00
2017-04-28T17:11:00.446Z,52.90
2017-04-28T17:13:29.678Z,48.90
2017-04-28T17:15:58.876Z,52.40
2017-04-28T17:18:27.757Z,48.50
2017-04-28T17:20:57.646Z,51.40
2017-04-28T17:23:26.860Z,49.50
2017-04-28T17:25:56.051Z,50.10
2017-04-28T17:28:25.269Z,48.80
2017-04-28T17:30:55.635Z,46.60
2017-04-28T17:33:25.100Z,43.20
2017-04-28T17:35:54.324Z,43.10
2017-04-28T17:38:23.558Z,43.50
2017-04-28T17:40:52.791Z,45.10
2017-04-28T17:43:22.001Z,43.00
2017-04-28T17:45:51.244Z,43.70
2017-04-28T17:48:20.432Z,44.70
2017-04-28T17:50:49.628Z,43.30
2017-04-28T17:53:18.946Z,44.30
2017-04-28T17:55:48.135Z,44.00
2017-04-28T17:58:17.473Z,45.60
2017-04-28T18:00:46.672Z,45.20
2017-04-28T18:03:15.862Z,45.90
2017-04-28T18:05:45.076Z,46.40
2017-04-28T18:08:14.308Z,47.10
2017-04-28T18:10:43.538Z,47.20
2017-04-28T18:13:12.724Z,47.50
2017-04-28T18:15:41.961Z,49.40
2017-04-28T18:18:11.173Z,49.50
2017-04-28T18:20:40.374Z,49.40
2017-04-28T18:23:09.645Z,50.30
2017-04-28T18:25:38.859Z,50.50
2017-04-28T18:28:08.082Z,51.00
2017-04-28T18:30:37.283Z,51.10
2017-04-28T18:33:06.491Z,52.70
2017-04-28T18:35:35.700Z,54.40
2017-04-28T18:38:04.565Z,53.50
2017-04-28T18:40:33.155Z,55.20
2017-04-28T18:43:03.052Z,56.00
2017-04-28T18:45:32.262Z,57.70
2017-04-28T18:48:01.469Z,57.50
2017-04-28T18:50:30.691Z,57.70
2017-04-28T18:52:59.937Z,58.70
2017-04-28T18:55:29.131Z,56.60
2017-04-28T18:57:58.324Z,58.20
2017-04-28T19:00:27.543Z,58.00
2017-04-28T19:02:56.741Z,59.40
2017-04-28T19:05:25.984Z,61.00
2017-04-28T19:07:55.189Z,59.70
2017-04-28T19:10:25.096Z,62.50
2017-04-28T19:12:54.318Z,63.70
2017-04-28T19:15:23.532Z,66.40
2017-04-28T19:17:52.758Z,66.50
2017-04-28T19:20:21.639Z,66.80
2017-04-28T19:22:50.844Z,65.60
2017-04-28T19:25:20.757Z,67.00
2017-04-28T19:27:49.961Z,67.20
2017-04-28T19:30:19.501Z,66.20
2017-04-28T19:32:48.712Z,66.90
2017-04-28T19:35:18.179Z,67.00
2017-04-28T19:37:47.392Z,66.90
2017-04-28T19:40:17.703Z,66.50
2017-04-28T19:42:46.941Z,66.80
2017-04-28T19:45:16.164Z,64.90
2017-04-28T19:47:45.639Z,67.20
2017-04-28T19:50:15.348Z,67.10
2017-04-28T19:52:45.600Z,65.90
2017-04-28T19:55:15.087Z,67.70
2017-04-28T19:57:44.559Z,66.30
2017-04-28T20:00:14.028Z,66.90
2017-04-28T20:02:43.546Z,67.50
2017-04-28T20:05:13.795Z,66.70
2017-04-28T20:07:43.381Z,69.00
2017-04-28T20:10:12.600Z,68.50
2017-04-28T20:12:42.073Z,69.20
2017-04-28T20:15:11.565Z,68.50
2017-04-28T20:17:40.689Z,69.80
2017-04-28T20:20:10.255Z,70.80
2017-04-28T20:22:39.736Z,71.30
2017-04-28T20:25:09.227Z,68.90
2017-04-28T20:27:38.718Z,68.60
2017-04-28T20:30:08.230Z,69.90
2017-04-28T20:32:37.717Z,70.10
2017-04-28T20:35:07.218Z,70.80
2017-04-28T20:37:36.718Z,69.40
2017-04-28T20:40:06.207Z,69.00
2017-04-28T20:42:35.760Z,69.20
2017-04-28T20:45:05.220Z,69.70
2017-04-28T20:47:34.679Z,68.40
2017-04-28T20:50:04.176Z,70.10
2017-04-28T20:52:33.664Z,69.00
2017-04-28T20:55:03.155Z,70.00
2017-04-28T20:57:32.632Z,69.30
2017-04-28T21:00:02.133Z,69.20
2017-04-28T21:02:32.019Z,69.70
2017-04-28T21:05:02.182Z,68.60
2017-04-28T21:07:31.683Z,68.60
2017-04-28T21:10:01.162Z,69.20
2017-04-28T21:12:30.644Z,69.70
2017-04-28T21:15:00.130Z,69.70
2017-04-28T21:17:29.642Z,70.80
2017-04-28T21:19:59.920Z,70.70
2017-04-28T21:22:29.787Z,68.60
2017-04-28T21:24:59.298Z,69.40
2017-04-28T21:27:29.656Z,68.10
2017-04-28T21:29:59.883Z,68.10
2017-04-28T21:32:29.383Z,67.50
2017-04-28T21:34:58.857Z,67.70
2017-04-28T21:37:28.315Z,69.40
2017-04-28T21:39:57.827Z,70.30
2017-04-28T21:42:28.041Z,70.50
2017-04-28T21:44:58.292Z,70.00
2017-04-28T21:47:27.753Z,68.40
2017-04-28T21:49:57.218Z,69.20
2017-04-28T21:52:26.701Z,67.10
2017-04-28T21:54:58.233Z,67.90
2017-04-28T21:57:28.472Z,67.40
2017-04-28T21:59:57.968Z,68.10
2017-04-28T22:02:27.855Z,68.10
2017-04-28T22:04:57.129Z,67.60
2017-04-28T22:07:26.611Z,67.90
2017-04-28T22:09:55.854Z,69.10
2017-04-28T22:12:26.030Z,68.60
2017-04-28T22:15:16.322Z,69.50
2017-04-28T22:17:45.515Z,70.10
2017-04-28T22:20:14.984Z,71.40
2017-04-28T22:22:44.124Z,73.40
2017-04-28T22:25:13.591Z,74.50
2017-04-28T22:27:43.072Z,74.90
2017-04-28T22:30:12.575Z,72.80
2017-04-28T22:32:42.523Z,74.50
2017-04-28T22:35:12.115Z,72.30
2017-04-28T22:37:41.623Z,71.50
2017-04-28T22:40:11.140Z,72.70
2017-04-28T22:42:40.631Z,72.50
2017-04-28T22:45:12.995Z,70.80
2017-04-28T22:47:42.484Z,70.30
2017-04-28T22:50:11.700Z,70.40
2017-04-28T22:52:41.645Z,72.70
2017-04-28T22:55:11.147Z,71.60
2017-04-28T22:57:40.346Z,72.30
2017-04-28T23:00:09.563Z,71.90
2017-04-28T23:02:39.872Z,70.10
2017-04-28T23:05:09.318Z,70.80
2017-04-28T23:07:38.811Z,71.70
2017-04-28T23:10:08.283Z,71.80
2017-04-28T23:12:37.873Z,71.40
2017-04-28T23:15:08.025Z,71.70
2017-04-28T23:17:37.566Z,70.40
2017-04-28T23:20:07.054Z,71.00
2017-04-28T23:22:35.931Z,71.90
2017-04-28T23:25:05.443Z,72.80
2017-04-28T23:27:35.679Z,72.10
2017-04-28T23:30:05.887Z,72.60
2017-04-28T23:32:36.127Z,72.60
2017-04-28T23:35:05.992Z,72.40
2017-04-28T23:37:35.480Z,70.80
2017-04-28T23:40:04.971Z,71.80
2017-04-28T23:42:34.455Z,71.70
2017-04-28T23:45:04.691Z,73.40
2017-04-28T23:47:34.196Z,72.80
2017-04-28T23:50:03.684Z,73.10
2017-04-28T23:52:33.941Z,72.90
2017-04-28T23:55:03.421Z,74.00
2017-04-28T23:57:33.300Z,73.30
